Time;durP1;ratioP1;P1;durP2;ratioP2;P2;SDS_P1;SDS_P2;PMS_P1;PMS_P2;Temp;Humidity;BMP_temperature;BMP_pressure;BME280_temperature;BME280_humidity;BME280_pressure;Samples;Min_cycle;Max_cycle;Signal;HPM_P1;HPM_P2
2022/12/11 00:00:46;;;;;;;17.57;9.50;;;;;;;-141.28;100.00;50100.56;5093347;28;20623;-76
2022/12/11 00:03:14;;;;;;;20.07;10.83;;;;;;;-141.28;100.00;50084.88;5092992;28;20199;-75
2022/12/11 00:05:42;;;;;;;20.10;10.20;;;;;;;-141.28;100.00;50016.19;5092948;28;20747;-77
2022/12/11 00:08:10;;;;;;;14.50;8.43;;;;;;;-141.28;100.00;50139.81;5092714;28;20235;-77
2022/12/11 00:10:37;;;;;;;20.10;9.57;;;;;;;-141.28;100.00;50137.88;5092960;28;20196;-76
2022/12/11 00:13:04;;;;;;;13.43;8.63;;;;;;;-141.28;100.00;50057.41;5092652;28;20252;-77
2022/12/11 00:15:32;;;;;;;20.63;10.50;;;;;;;-141.28;100.00;50139.81;5105599;28;20446;-78
2022/12/11 00:17:59;;;;;;;18.83;10.13;;;;;;;-141.28;100.00;49992.63;5092708;28;20583;-79
2022/12/11 00:20:27;;;;;;;14.83;9.50;;;;;;;-141.28;100.00;50122.16;5092558;28;20647;-75
2022/12/11 00:22:54;;;;;;;17.80;9.23;;;;;;;-141.28;100.00;50071.13;5102048;28;20191;-75
2022/12/11 00:25:23;;;;;;;16.67;8.87;;;;;;;-141.28;100.00;50141.78;5102675;28;20242;-76
2022/12/11 00:27:50;;;;;;;18.33;9.53;;;;;;;-141.28;100.00;50147.69;5097357;28;20231;-77
2022/12/11 00:30:18;;;;;;;16.93;9.30;;;;;;;-141.28;100.00;50012.25;5103939;28;20199;-76
2022/12/11 00:32:47;;;;;;;16.63;9.20;;;;;;;-141.28;100.00;50153.56;5092821;28;20222;-78
2022/12/11 00:35:14;;;;;;;13.60;7.70;;;;;;;-141.28;100.00;50169.28;5105620;28;20285;-77
2022/12/11 00:37:42;;;;;;;16.23;8.50;;;;;;;-141.28;100.00;50173.19;5091635;28;20649;-76
2022/12/11 00:40:10;;;;;;;18.47;8.60;;;;;;;-141.28;100.00;50130.00;5092902;28;20207;-75
2022/12/11 00:42:37;;;;;;;15.33;8.50;;;;;;;-141.28;100.00;50131.97;5109884;28;20561;-75
2022/12/11 00:45:04;;;;;;;14.73;8.87;;;;;;;-141.28;100.00;50153.56;5107465;28;20204;-75
2022/12/11 00:47:31;;;;;;;18.17;9.27;;;;;;;-141.28;100.00;50165.34;5094134;28;20227;-79
2022/12/11 00:49:58;;;;;;;17.97;9.23;;;;;;;-141.28;100.00;50208.53;5093080;28;20211;-75
2022/12/11 00:52:27;;;;;;;18.73;9.23;;;;;;;-141.28;100.00;50239.94;5105969;28;20231;-77
2022/12/11 00:54:57;;;;;;;18.47;8.40;;;;;;;-141.28;100.00;50247.78;5093100;28;20204;-74
2022/12/11 00:57:24;;;;;;;16.03;9.00;;;;;;;-141.28;100.00;50208.53;5102342;28;20207;-75
2022/12/11 00:59:51;;;;;;;12.60;6.60;;;;;;;-141.28;100.00;50232.06;5116672;28;20260;-75
2022/12/11 01:02:19;;;;;;;19.93;8.93;;;;;;;-141.28;100.00;50181.03;5119421;28;20198;-75
2022/12/11 01:04:45;;;;;;;16.37;8.57;;;;;;;-141.28;100.00;50184.97;5122193;28;20225;-75
2022/12/11 01:07:12;;;;;;;16.03;8.70;;;;;;;-141.28;100.00;50153.56;5111908;28;20215;-75
2022/12/11 01:12:27;;;;;;;16.13;8.40;;;;;;;-141.28;100.00;50000.47;5129948;28;20232;-75
2022/12/11 01:14:54;;;;;;;14.90;9.53;;;;;;;-141.28;100.00;50024.03;5116586;28;20221;-78
2022/12/11 01:17:23;;;;;;;14.63;8.70;;;;;;;-141.28;100.00;50035.81;5101582;28;20245;-77
2022/12/11 01:19:50;;;;;;;16.23;8.40;;;;;;;-141.28;100.00;50024.03;5094988;28;20219;-76
2022/12/11 01:22:17;;;;;;;16.00;8.70;;;;;;;-141.28;100.00;50016.19;5108097;28;20202;-76
2022/12/11 01:24:44;;;;;;;13.40;7.77;;;;;;;-141.28;100.00;50027.97;5093245;28;20626;-79
2022/12/11 01:27:13;;;;;;;16.93;8.50;;;;;;;-141.28;100.00;50037.78;5094421;28;20242;-75
2022/12/11 01:29:42;;;;;;;15.17;8.70;;;;;;;-141.28;100.00;50027.97;5111737;28;20692;-78
2022/12/11 01:32:09;;;;;;;14.13;9.07;;;;;;;-141.28;100.00;50037.78;5094678;28;20199;-77
2022/12/11 01:34:36;;;;;;;19.27;8.83;;;;;;;-141.28;100.00;50039.72;5091684;28;20207;-76
2022/12/11 01:37:03;;;;;;;13.87;8.27;;;;;;;-141.28;100.00;50031.88;5091568;28;20211;-76
2022/12/11 01:39:30;;;;;;;15.00;8.87;;;;;;;-141.28;100.00;50027.97;5092445;28;20216;-77
2022/12/11 01:41:58;;;;;;;13.20;8.50;;;;;;;-141.28;100.00;50016.19;5095856;28;20283;-77
2022/12/11 01:44:58;;;;;;;17.00;8.83;;;;;;;-141.28;100.00;49949.44;5111846;28;20206;-78
2022/12/11 01:47:26;;;;;;;17.00;8.57;;;;;;;-141.28;100.00;49890.56;5047170;28;20235;-77
2022/12/11 01:49:57;;;;;;;18.13;9.33;;;;;;;-141.28;100.00;49941.59;5093221;28;20723;-79
2022/12/11 01:52:25;;;;;;;19.97;8.23;;;;;;;-141.28;100.00;50012.25;5095553;28;20445;-79
2022/12/11 01:54:52;;;;;;;11.93;6.03;;;;;;;-141.28;100.00;49933.75;5095015;28;20203;-76
2022/12/11 01:57:19;;;;;;;13.13;6.37;;;;;;;-141.28;100.00;50094.69;5098961;28;20693;-76
2022/12/11 01:59:47;;;;;;;10.00;4.53;;;;;;;-141.28;100.00;50130.00;5115358;28;20275;-76
2022/12/11 02:02:19;;;;;;;14.33;6.30;;;;;;;-141.28;100.00;50106.47;5106645;28;20615;-74
2022/12/11 02:04:48;;;;;;;24.00;12.47;;;;;;;-141.28;100.00;50102.53;5095491;28;20203;-78
2022/12/11 02:07:17;;;;;;;15.37;8.57;;;;;;;-141.28;100.00;50133.94;5094854;28;20314;-77
2022/12/11 02:09:47;;;;;;;13.77;7.93;;;;;;;-141.28;100.00;50184.97;5095047;28;20200;-76
2022/12/11 02:12:24;;;;;;;14.30;8.30;;;;;;;-141.28;100.00;50090.75;5094829;28;20207;-76
2022/12/11 02:14:57;;;;;;;15.30;7.53;;;;;;;-141.28;100.00;50071.13;5095435;28;20930;-76
2022/12/11 02:17:34;;;;;;;17.33;7.57;;;;;;;-141.28;100.00;50020.09;5095264;28;20571;-75
2022/12/11 02:20:08;;;;;;;20.30;8.80;;;;;;;-141.28;100.00;49933.75;5095380;28;20218;-79
2022/12/11 02:22:50;;;;;;;14.93;8.50;;;;;;;-141.28;100.00;49831.69;5095555;28;20689;-78
2022/12/11 02:25:26;;;;;;;15.70;8.13;;;;;;;-141.28;100.00;49918.06;5095343;28;20274;-77
2022/12/11 02:27:57;;;;;;;12.57;6.50;;;;;;;-141.28;100.00;49957.31;5095241;28;20620;-76
2022/12/11 02:30:30;;;;;;;12.70;6.23;;;;;;;-141.28;100.00;49949.44;5095219;28;20943;-76
2022/12/11 02:32:59;;;;;;;8.23;4.70;;;;;;;-141.28;100.00;49961.22;5095457;28;20253;-74
2022/12/11 02:35:31;;;;;;;13.30;5.60;;;;;;;-141.28;100.00;49939.63;5096617;28;20199;-76
2022/12/11 02:38:02;;;;;;;11.20;5.20;;;;;;;-141.28;100.00;49819.94;5095238;28;20260;-77
2022/12/11 02:40:36;;;;;;;10.83;3.63;;;;;;;-141.28;100.00;49843.47;5094514;28;20203;-76
2022/12/11 02:43:07;;;;;;;5.90;3.73;;;;;;;-141.28;100.00;49768.91;5094379;28;20674;-74
2022/12/11 02:45:39;;;;;;;0.87;0.70;;;;;;;-141.28;100.00;49708.06;5094364;28;20286;-77
2022/12/11 02:48:09;;;;;;;3.63;1.70;;;;;;;-141.28;100.00;49543.22;5096639;28;20705;-78
2022/12/11 02:50:39;;;;;;;1.30;1.17;;;;;;;-141.28;100.00;49348.97;5104937;28;20207;-77
2022/12/11 02:53:07;;;;;;;1.70;1.00;;;;;;;-141.28;100.00;49282.25;5094367;28;20210;-75
2022/12/11 02:55:36;;;;;;;5.93;2.50;;;;;;;-141.28;100.00;49199.84;5094215;28;20204;-75
2022/12/11 02:58:08;;;;;;;3.07;2.30;;;;;;;-141.28;100.00;49137.06;5096285;28;20207;-75
2022/12/11 03:00:37;;;;;;;4.70;2.40;;;;;;;-141.28;100.00;49093.88;5099139;28;20207;-75
2022/12/11 03:03:04;;;;;;;7.03;2.13;;;;;;;-141.28;100.00;49035.03;5108988;28;20245;-76
2022/12/11 03:05:31;;;;;;;3.80;2.10;;;;;;;-141.28;100.00;48976.16;5113611;28;20272;-75
2022/12/11 03:07:58;;;;;;;4.97;2.60;;;;;;;-141.28;100.00;48925.16;5093854;28;20292;-76
2022/12/11 03:10:25;;;;;;;4.73;2.53;;;;;;;-141.28;100.00;48980.09;5094463;28;20208;-78
2022/12/11 03:12:55;;;;;;;3.43;1.40;;;;;;;-141.28;100.00;48954.59;5093962;28;20203;-75
2022/12/11 03:15:31;;;;;;;0.93;0.83;;;;;;;-141.28;100.00;48987.94;5094885;28;20208;-75
2022/12/11 03:18:09;;;;;;;0.30;0.30;;;;;;;-141.28;100.00;49054.66;5105063;28;20203;-75
2022/12/11 03:20:41;;;;;;;2.43;0.50;;;;;;;-141.28;100.00;49317.56;5100293;28;20282;-79
2022/12/11 03:23:19;;;;;;;0.63;0.60;;;;;;;-141.28;100.00;49517.72;5099915;28;20208;-76
2022/12/11 03:25:53;;;;;;;0.30;0.30;;;;;;;-141.28;100.00;49749.28;5093394;28;20357;-77
2022/12/11 03:28:26;;;;;;;0.70;0.50;;;;;;;-141.28;100.00;49986.75;5093689;28;20231;-75
2022/12/11 03:30:54;;;;;;;2.23;0.50;;;;;;;-141.28;100.00;50126.09;5094691;28;20273;-77
2022/12/11 03:33:26;;;;;;;0.73;0.50;;;;;;;-141.28;100.00;50304.69;5093457;28;20689;-76
2022/12/11 03:35:56;;;;;;;0.20;0.20;;;;;;;-141.28;100.00;50726.72;5094103;28;20199;-77
2022/12/11 03:38:28;;;;;;;0.40;0.40;;;;;;;-141.28;100.00;50871.97;5093992;28;20215;-74
2022/12/11 03:40:58;;;;;;;0.57;0.33;;;;;;;-141.28;100.00;51044.75;5094013;28;20206;-75
2022/12/11 03:43:28;;;;;;;1.67;0.40;;;;;;;-141.28;100.00;51135.03;5097169;28;20247;-77
2022/12/11 03:45:58;;;;;;;4.17;1.00;;;;;;;-141.28;100.00;51229.28;5102522;28;20735;-75
2022/12/11 03:48:34;;;;;;;1.10;0.90;;;;;;;-141.28;100.00;51480.59;5093579;28;20235;-76
2022/12/11 03:51:05;;;;;;;0.53;0.53;;;;;;;-141.28;100.00;51449.19;5106264;28;20305;-78
2022/12/11 03:53:34;;;;;;;1.53;1.00;;;;;;;-141.28;100.00;51576.81;5094531;28;20290;-75
2022/12/11 03:56:03;;;;;;;2.90;1.17;;;;;;;-141.28;100.00;51519.88;5107927;28;20195;-78
2022/12/11 03:58:30;;;;;;;1.60;1.03;;;;;;;-141.28;100.00;51343.16;5092956;28;20222;-75
2022/12/11 04:00:58;;;;;;;1.07;0.80;;;;;;;-141.28;100.00;51260.69;5093318;28;20195;-75
2022/12/11 04:03:26;;;;;;;0.97;0.80;;;;;;;-141.28;100.00;51207.69;5104600;28;20211;-74
2022/12/11 04:05:54;;;;;;;1.90;0.80;;;;;;;-141.28;100.00;51229.28;5099555;28;20281;-74
2022/12/11 04:08:22;;;;;;;6.70;2.20;;;;;;;-141.28;100.00;51174.31;5100609;28;20227;-74
2022/12/11 04:11:33;;;;;;;6.53;1.90;;;;;;;-141.28;100.00;51103.63;5109616;28;20203;-75
2022/12/11 04:13:38;;;;;;;4.93;1.40;;;;;;;-141.28;100.00;51095.78;5091598;28;20514;-77
2022/12/11 04:16:05;;;;;;;3.23;0.80;;;;;;;-141.28;100.00;50911.25;5092582;28;20195;-78
2022/12/11 04:24:16;;;;;;;2.10;1.00;;;;;;;-141.28;100.00;50809.16;5094606;28;20233;-76
2022/12/11 04:26:43;;;;;;;3.47;0.93;;;;;;;-141.28;100.00;50848.44;5105424;28;20304;-78
2022/12/11 04:29:10;;;;;;;1.13;1.00;;;;;;;-141.28;100.00;50746.34;5111679;28;20599;-75
2022/12/11 04:31:38;;;;;;;2.00;1.20;;;;;;;-141.28;100.00;50612.88;5099346;28;20212;-75
2022/12/11 04:34:06;;;;;;;1.23;0.90;;;;;;;-141.28;100.00;50561.81;5098484;28;20264;-78
2022/12/11 04:36:33;;;;;;;1.03;0.93;;;;;;;-141.28;100.00;50432.28;5099089;28;20199;-74
2022/12/11 04:39:00;;;;;;;1.33;0.90;;;;;;;-141.28;100.00;50304.69;5112204;28;20195;-75
2022/12/11 04:41:27;;;;;;;4.40;0.90;;;;;;;-141.28;100.00;50169.28;5098698;28;20203;-75
2022/12/11 04:43:54;;;;;;;1.23;0.80;;;;;;;-141.28;100.00;50082.91;5104729;28;20251;-75
2022/12/11 04:46:22;;;;;;;1.57;1.20;;;;;;;-141.28;100.00;50031.88;5105397;28;20262;-75
2022/12/11 04:48:50;;;;;;;2.13;1.10;;;;;;;-141.28;100.00;50000.47;5100423;28;20227;-75
2022/12/11 04:51:19;;;;;;;1.47;0.83;;;;;;;-141.28;100.00;49976.94;5098350;28;20207;-78
2022/12/11 04:53:46;;;;;;;1.53;1.00;;;;;;;-141.28;100.00;49984.78;5112652;28;20203;-75
2022/12/11 04:56:15;;;;;;;1.57;0.77;;;;;;;-141.28;100.00;50010.28;5095913;28;20200;-74
2022/12/11 04:58:43;;;;;;;2.23;1.20;;;;;;;-141.28;100.00;50016.19;5102884;28;20210;-79
2022/12/11 05:01:11;;;;;;;1.47;1.07;;;;;;;-141.28;100.00;49992.63;5098861;28;20198;-75
2022/12/11 05:03:39;;;;;;;1.53;0.70;;;;;;;-141.28;100.00;50075.06;5102909;28;20200;-78
2022/12/11 05:06:08;;;;;;;1.13;0.90;;;;;;;-141.28;100.00;50090.75;5106755;28;20206;-74
2022/12/11 05:08:39;;;;;;;1.10;1.00;;;;;;;-141.28;100.00;50086.84;5113031;28;20234;-74
2022/12/11 05:11:08;;;;;;;2.77;1.07;;;;;;;-141.28;100.00;50165.34;5096560;28;20200;-77
2022/12/11 05:13:36;;;;;;;1.20;1.00;;;;;;;-141.28;100.00;50177.13;5092947;28;20263;-76
2022/12/11 05:16:04;;;;;;;1.10;0.83;;;;;;;-141.28;100.00;50232.06;5092876;28;20195;-76
2022/12/11 05:18:31;;;;;;;2.10;0.70;;;;;;;-141.28;100.00;50322.34;5113830;28;20241;-75
2022/12/11 05:21:00;;;;;;;1.20;0.70;;;;;;;-141.28;100.00;50569.69;5115257;28;20203;-75
2022/12/11 05:23:27;;;;;;;0.50;0.50;;;;;;;-141.28;100.00;50773.81;5100642;28;20200;-75
2022/12/11 05:25:57;;;;;;;1.87;0.80;;;;;;;-141.28;100.00;50883.75;5109370;28;20313;-75
2022/12/11 05:28:25;;;;;;;6.97;1.00;;;;;;;-141.28;100.00;51031.00;5097998;28;20227;-74
2022/12/11 05:30:56;;;;;;;0.93;0.70;;;;;;;-141.28;100.00;51135.03;5102504;28;20677;-74
2022/12/11 05:33:23;;;;;;;1.63;1.27;;;;;;;-141.28;100.00;51227.31;5096161;28;20263;-77
2022/12/11 05:35:50;;;;;;;1.93;0.90;;;;;;;-141.28;100.00;51301.94;5101428;28;20203;-77
2022/12/11 05:38:18;;;;;;;1.07;0.90;;;;;;;-141.28;100.00;51362.78;5091308;28;20260;-75
2022/12/11 05:40:45;;;;;;;2.57;1.00;;;;;;;-141.28;100.00;51351.00;5091472;28;20204;-76
2022/12/11 05:43:13;;;;;;;1.27;1.13;;;;;;;-141.28;100.00;51358.88;5110409;28;20681;-79
2022/12/11 05:45:41;;;;;;;0.77;0.70;;;;;;;-141.28;100.00;51382.44;5094295;28;20705;-76
2022/12/11 05:48:08;;;;;;;1.87;1.00;;;;;;;-141.28;100.00;51284.25;5091272;28;20223;-78
2022/12/11 05:50:36;;;;;;;2.80;1.00;;;;;;;-141.28;100.00;51221.44;5091408;28;20290;-75
2022/12/11 05:53:04;;;;;;;3.37;1.77;;;;;;;-141.28;100.00;51335.31;5091777;28;20215;-75
2022/12/11 05:55:34;;;;;;;1.00;0.80;;;;;;;-141.28;100.00;51296.03;5091478;28;20200;-77
2022/12/11 05:58:01;;;;;;;1.00;0.83;;;;;;;-141.28;100.00;51319.59;5092216;28;20261;-75
2022/12/11 06:00:31;;;;;;;3.60;1.70;;;;;;;-141.28;100.00;51368.69;5091048;28;20256;-77
2022/12/11 06:02:58;;;;;;;4.17;1.40;;;;;;;-141.28;100.00;51390.28;5091100;28;20207;-77
2022/12/11 06:05:25;;;;;;;1.37;0.90;;;;;;;-141.28;100.00;51382.44;5092127;28;20211;-76
2022/12/11 06:07:52;;;;;;;3.83;0.90;;;;;;;-141.28;100.00;51398.13;5098783;28;20218;-79
2022/12/11 06:10:19;;;;;;;1.10;0.70;;;;;;;-141.28;100.00;51382.44;5105339;28;20245;-78
2022/12/11 06:12:45;;;;;;;2.37;1.00;;;;;;;-141.28;100.00;51339.22;5091618;28;20624;-76
2022/12/11 06:15:12;;;;;;;1.03;0.87;;;;;;;-141.28;100.00;51394.22;5091347;28;20199;-75
2022/12/11 06:17:41;;;;;;;2.30;0.80;;;;;;;-141.28;100.00;51441.31;5108585;28;20260;-75
2022/12/11 06:20:08;;;;;;;3.43;1.00;;;;;;;-141.28;100.00;51445.25;5100572;28;20191;-75
2022/12/11 06:22:35;;;;;;;2.73;1.10;;;;;;;-141.28;100.00;51504.16;5097041;28;20321;-75
2022/12/11 06:25:03;;;;;;;0.87;0.73;;;;;;;-141.28;100.00;51457.03;5091539;28;20216;-76
2022/12/11 06:27:29;;;;;;;2.00;1.00;;;;;;;-141.28;100.00;51453.09;5091522;28;20238;-76
2022/12/11 06:29:57;;;;;;;1.70;0.80;;;;;;;-141.28;100.00;51413.84;5098451;28;20235;-75
2022/12/11 06:32:24;;;;;;;1.53;1.23;;;;;;;-141.28;100.00;51423.66;5098397;28;20222;-77
2022/12/11 06:34:52;;;;;;;1.40;1.00;;;;;;;-141.28;100.00;51441.31;5111352;28;20249;-75
2022/12/11 06:37:19;;;;;;;2.27;1.20;;;;;;;-141.28;100.00;51362.78;5100265;28;20202;-76
2022/12/11 06:39:46;;;;;;;5.33;0.97;;;;;;;-141.28;100.00;51374.56;5101855;28;20544;-76
2022/12/11 06:42:15;;;;;;;2.77;1.00;;;;;;;-141.28;100.00;51394.22;5107601;28;20287;-76
2022/12/11 06:44:42;;;;;;;4.53;2.00;;;;;;;-141.28;100.00;51380.47;5095821;28;20210;-78
2022/12/11 06:47:09;;;;;;;2.70;1.50;;;;;;;-141.28;100.00;51366.72;5107137;28;20195;-76
2022/12/11 06:49:37;;;;;;;7.87;0.93;;;;;;;-141.28;100.00;51437.41;5094870;28;20253;-78
2022/12/11 06:52:05;;;;;;;1.97;0.50;;;;;;;-141.28;100.00;51278.38;5102618;28;20252;-76
2022/12/11 06:54:33;;;;;;;0.47;0.30;;;;;;;-141.28;100.00;51056.53;5098928;28;20207;-76
2022/12/11 06:57:00;;;;;;;1.63;1.00;;;;;;;-141.28;100.00;51025.09;5094974;28;20551;-76
2022/12/11 06:59:27;;;;;;;4.07;0.80;;;;;;;-141.28;100.00;51142.91;5093915;28;20582;-77
2022/12/11 07:01:54;;;;;;;1.70;0.80;;;;;;;-141.28;100.00;51264.63;5094085;28;20237;-76
2022/12/11 07:04:26;;;;;;;1.67;0.60;;;;;;;-141.28;100.00;51323.53;5097344;28;20203;-78
2022/12/11 07:06:52;;;;;;;0.57;0.57;;;;;;;-141.28;100.00;51382.44;5114520;28;20234;-77
2022/12/11 07:09:22;;;;;;;1.50;0.87;;;;;;;-141.28;100.00;51382.44;5096396;28;20227;-74
2022/12/11 07:11:50;;;;;;;3.30;0.90;;;;;;;-141.28;100.00;51402.06;5094040;28;20260;-75
2022/12/11 07:14:17;;;;;;;1.40;0.77;;;;;;;-141.28;100.00;51441.31;5094375;28;20210;-75
2022/12/11 07:16:44;;;;;;;0.43;0.43;;;;;;;-141.28;100.00;51374.56;5093904;28;20204;-77
2022/12/11 07:19:11;;;;;;;1.83;0.83;;;;;;;-141.28;100.00;51386.34;5112663;28;20252;-74
2022/12/11 07:21:38;;;;;;;4.80;1.00;;;;;;;-141.28;100.00;51482.56;5114879;28;20244;-77
2022/12/11 07:24:08;;;;;;;0.80;0.60;;;;;;;-141.28;100.00;51417.78;5112587;28;20195;-76
2022/12/11 07:26:38;;;;;;;1.57;0.83;;;;;;;-141.28;100.00;51429.53;5113963;28;20713;-77
2022/12/11 07:29:05;;;;;;;4.87;1.10;;;;;;;-141.28;100.00;51486.50;5113270;28;20684;-75
2022/12/11 07:31:32;;;;;;;1.23;0.80;;;;;;;-141.28;100.00;51366.72;5102140;28;20208;-76
2022/12/11 07:34:02;;;;;;;5.27;1.30;;;;;;;-141.28;100.00;51409.91;5093688;28;20204;-75
2022/12/11 07:36:30;;;;;;;2.13;0.97;;;;;;;-141.28;100.00;51455.06;5093188;28;20559;-76
2022/12/11 07:38:59;;;;;;;1.70;1.17;;;;;;;-141.28;100.00;51394.22;5093781;28;20204;-76
2022/12/11 07:41:27;;;;;;;3.17;1.00;;;;;;;-141.28;100.00;51406.00;5107195;28;20577;-77
2022/12/11 07:43:57;;;;;;;1.37;1.00;;;;;;;-141.28;100.00;51376.53;5109100;28;20203;-75
2022/12/11 07:46:27;;;;;;;2.63;1.10;;;;;;;-141.28;100.00;51419.72;5095280;28;20210;-76
2022/12/11 07:48:54;;;;;;;1.43;0.77;;;;;;;-141.28;100.00;51402.06;5101985;28;20233;-77
2022/12/11 07:51:26;;;;;;;2.60;1.33;;;;;;;-141.28;100.00;51400.09;5113021;28;20578;-75
2022/12/11 07:53:55;;;;;;;3.20;1.10;;;;;;;-141.28;100.00;51437.41;5113466;28;20637;-78
2022/12/11 07:56:24;;;;;;;1.80;0.90;;;;;;;-141.28;100.00;51407.94;5095968;28;20658;-76
2022/12/11 07:58:52;;;;;;;2.87;1.27;;;;;;;-141.28;100.00;51392.25;5093347;28;20581;-75
2022/12/11 08:01:22;;;;;;;2.07;1.00;;;;;;;-141.28;100.00;51370.66;5093072;28;20701;-79
2022/12/11 08:03:51;;;;;;;2.40;1.30;;;;;;;-141.28;100.00;51407.94;5094940;28;20211;-78
2022/12/11 08:06:20;;;;;;;3.50;1.40;;;;;;;-141.28;100.00;51404.03;5107833;28;20196;-75
2022/12/11 08:08:48;;;;;;;1.63;1.00;;;;;;;-141.28;100.00;51333.34;5092950;28;20292;-78
2022/12/11 08:11:15;;;;;;;2.77;1.30;;;;;;;-141.28;100.00;51319.59;5093584;28;20203;-78
2022/12/11 08:13:44;;;;;;;1.00;0.83;;;;;;;-141.28;100.00;51362.78;5093057;28;20208;-75
2022/12/11 08:16:13;;;;;;;3.47;1.13;;;;;;;-141.28;100.00;51358.88;5092722;28;20196;-75
2022/12/11 08:18:43;;;;;;;3.00;0.90;;;;;;;-141.28;100.00;51394.22;5098286;28;20594;-78
2022/12/11 08:21:11;;;;;;;5.17;1.07;;;;;;;-141.28;100.00;51382.44;5101421;28;20199;-75
2022/12/11 08:23:38;;;;;;;2.17;1.10;;;;;;;-141.28;100.00;51362.78;5105048;28;20807;-76
2022/12/11 08:26:07;;;;;;;2.10;1.10;;;;;;;-141.28;100.00;51358.88;5093961;28;20231;-76
2022/12/11 08:28:34;;;;;;;2.93;1.20;;;;;;;-141.28;100.00;51347.09;5112464;28;20199;-79
2022/12/11 08:31:04;;;;;;;0.90;0.60;;;;;;;-141.28;100.00;51345.13;5097559;28;20674;-79
2022/12/11 08:33:31;;;;;;;1.67;0.87;;;;;;;-141.28;100.00;51333.34;5092952;28;20620;-76
2022/12/11 08:36:03;;;;;;;2.10;0.90;;;;;;;-141.28;100.00;51311.75;5093544;28;20203;-79
2022/12/11 08:38:30;;;;;;;1.40;1.00;;;;;;;-141.28;100.00;51292.13;5092291;28;20199;-76
2022/12/11 08:40:57;;;;;;;2.40;1.00;;;;;;;-141.28;100.00;51319.59;5095421;28;20195;-75
2022/12/11 08:43:25;;;;;;;2.13;0.93;;;;;;;-141.28;100.00;51288.19;5123426;28;20207;-74
2022/12/11 08:45:53;;;;;;;1.00;0.70;;;;;;;-141.28;100.00;51256.78;5106885;28;20233;-74
2022/12/11 08:48:20;;;;;;;1.23;0.90;;;;;;;-141.28;100.00;51270.50;5105914;28;20223;-74
2022/12/11 08:50:48;;;;;;;2.47;1.00;;;;;;;-141.28;100.00;51303.88;5116035;28;20238;-73
2022/12/11 08:53:27;;;;;;;0.90;0.70;;;;;;;-141.28;100.00;51243.03;5105866;28;20215;-76
2022/12/11 08:55:57;;;;;;;1.00;0.90;;;;;;;-141.28;100.00;51296.03;5107602;28;20195;-74
2022/12/11 08:58:25;;;;;;;1.00;1.00;;;;;;;-141.28;100.00;51284.25;5107580;28;20207;-76
2022/12/11 09:00:53;;;;;;;1.93;1.00;;;;;;;-141.28;100.00;51323.53;5104340;28;20204;-76
2022/12/11 09:03:20;;;;;;;2.20;0.90;;;;;;;-141.28;100.00;51303.88;5105014;28;20203;-76
2022/12/11 09:05:48;;;;;;;0.80;0.80;;;;;;;-141.28;100.00;51290.16;5092132;28;20261;-76
2022/12/11 09:08:17;;;;;;;1.53;1.00;;;;;;;-141.28;100.00;51315.66;5092920;28;20272;-77
2022/12/11 09:10:44;;;;;;;3.57;1.20;;;;;;;-141.28;100.00;51270.50;5105590;28;20239;-76
2022/12/11 09:13:15;;;;;;;5.87;1.27;;;;;;;-141.28;100.00;51260.69;5111885;28;20194;-76
2022/12/11 09:15:43;;;;;;;3.07;1.30;;;;;;;-141.28;100.00;51274.44;5100312;28;20651;-76
2022/12/11 09:18:11;;;;;;;4.83;1.30;;;;;;;-141.28;100.00;51299.97;5092312;28;20286;-78
2022/12/11 09:20:38;;;;;;;1.70;1.27;;;;;;;-141.28;100.00;51266.59;5092353;28;20222;-76
2022/12/11 09:23:06;;;;;;;1.50;1.30;;;;;;;-141.28;100.00;51260.69;5092041;28;20199;-76
2022/12/11 09:25:34;;;;;;;1.40;1.10;;;;;;;-141.28;100.00;51237.13;5096686;28;20287;-76
2022/12/11 09:28:01;;;;;;;2.30;1.03;;;;;;;-141.28;100.00;51292.13;5101339;28;20207;-78
2022/12/11 09:30:28;;;;;;;1.50;1.30;;;;;;;-141.28;100.00;51270.50;5092213;28;20234;-77
2022/12/11 09:32:57;;;;;;;2.73;1.17;;;;;;;-141.28;100.00;51276.41;5091580;28;20211;-77
2022/12/11 09:35:25;;;;;;;1.60;1.00;;;;;;;-141.28;100.00;51284.25;5117294;28;20207;-74
2022/12/11 09:37:52;;;;;;;2.53;1.40;;;;;;;-141.28;100.00;51270.50;5096081;28;20257;-76
2022/12/11 09:40:21;;;;;;;3.80;1.20;;;;;;;-141.28;100.00;51264.63;5091493;28;20290;-79
2022/12/11 09:43:00;;;;;;;1.73;1.40;;;;;;;-141.28;100.00;51323.53;5091840;28;20222;-80
2022/12/11 09:45:28;;;;;;;4.03;1.60;;;;;;;-141.28;100.00;51278.38;5092154;28;20255;-78
2022/12/11 09:47:56;;;;;;;2.70;1.10;;;;;;;-141.28;100.00;51245.00;5092049;28;20196;-77
2022/12/11 09:50:26;;;;;;;1.30;1.10;;;;;;;-141.28;100.00;51280.34;5110235;28;20226;-75
2022/12/11 09:53:05;;;;;;;3.80;1.37;;;;;;;-141.28;100.00;51245.00;5116159;28;20207;-76
2022/12/11 09:55:42;;;;;;;2.07;1.20;;;;;;;-141.28;100.00;51264.63;5111265;28;20620;-75
2022/12/11 09:58:22;;;;;;;1.87;1.17;;;;;;;-141.28;100.00;51248.91;5113796;28;20199;-74
2022/12/11 10:00:55;;;;;;;1.10;0.97;;;;;;;-141.28;100.00;51284.25;5112757;28;20214;-78
2022/12/11 10:03:46;;;;;;;0.90;0.90;;;;;;;-141.28;100.00;51319.59;5115971;28;20198;-77
2022/12/11 10:06:19;;;;;;;1.90;1.40;;;;;;;-141.28;100.00;51248.91;5092547;28;20594;-75
2022/12/11 10:08:58;;;;;;;0.93;0.93;;;;;;;-141.28;100.00;51303.88;5105245;28;20195;-76
2022/12/11 10:11:44;;;;;;;3.43;1.10;;;;;;;-141.28;100.00;51245.00;5101119;28;20203;-76
2022/12/11 10:14:22;;;;;;;2.67;1.53;;;;;;;-141.28;100.00;51205.72;5110264;28;20195;-75
2022/12/11 10:16:52;;;;;;;1.23;1.13;;;;;;;-141.28;100.00;51197.88;5095836;28;20233;-76
2022/12/11 10:19:22;;;;;;;1.80;1.50;;;;;;;-141.28;100.00;51144.88;5115423;28;20199;-75
2022/12/11 10:21:51;;;;;;;2.13;1.17;;;;;;;-141.28;100.00;51129.16;5101765;28;20261;-76
2022/12/11 10:24:24;;;;;;;1.80;1.30;;;;;;;-141.28;100.00;51062.41;5103364;28;20260;-77
2022/12/11 10:26:56;;;;;;;1.80;1.43;;;;;;;-141.28;100.00;51019.22;5112857;28;20242;-75
2022/12/11 10:29:25;;;;;;;1.67;1.40;;;;;;;-141.28;100.00;50966.22;5095187;28;20280;-76
2022/12/11 10:31:57;;;;;;;2.47;1.50;;;;;;;-141.28;100.00;50850.38;5095597;28;20565;-76
2022/12/11 10:34:34;;;;;;;1.33;1.20;;;;;;;-141.28;100.00;50744.38;5095167;28;20215;-76
2022/12/11 10:37:02;;;;;;;3.07;1.27;;;;;;;-141.28;100.00;50601.09;5108723;28;20199;-75
2022/12/11 10:39:29;;;;;;;2.27;1.50;;;;;;;-141.28;100.00;50489.19;5094824;28;20204;-76
2022/12/11 10:41:57;;;;;;;3.33;1.60;;;;;;;-141.28;100.00;50432.28;5094957;28;20282;-77
2022/12/11 10:44:27;;;;;;;1.50;1.40;;;;;;;-141.28;100.00;50412.66;5094819;28;20256;-77
2022/12/11 10:47:05;;;;;;;5.23;1.47;;;;;;;-141.28;100.00;50440.13;5100361;28;20210;-76
2022/12/11 10:49:35;;;;;;;2.00;1.50;;;;;;;-141.28;100.00;50440.13;5101185;28;20227;-76
2022/12/11 10:52:10;;;;;;;1.97;1.50;;;;;;;-141.28;100.00;50438.16;5112341;28;20641;-76
2022/12/11 10:54:39;;;;;;;2.63;1.60;;;;;;;-141.28;100.00;50442.09;5114939;28;20194;-79
2022/12/11 10:57:09;;;;;;;5.13;1.90;;;;;;;-141.28;100.00;50502.94;5096246;28;20217;-76
2022/12/11 10:59:44;;;;;;;3.20;1.70;;;;;;;-141.28;100.00;50550.06;5095197;28;20253;-76
2022/12/11 11:02:22;;;;;;;2.37;1.80;;;;;;;-141.28;100.00;50648.19;5100542;28;20252;-78
2022/12/11 11:04:49;;;;;;;2.50;1.63;;;;;;;-141.28;100.00;50659.97;5113448;28;20732;-76
2022/12/11 11:07:22;;;;;;;3.80;1.87;;;;;;;-141.28;100.00;50711.00;5094244;28;20203;-76
2022/12/11 11:09:53;;;;;;;2.30;1.70;;;;;;;-141.28;100.00;50711.00;5096117;28;20278;-79
2022/12/11 11:12:23;;;;;;;3.30;1.73;;;;;;;-141.28;100.00;50750.28;5108525;28;20257;-77
2022/12/11 11:15:11;;;;;;;2.37;1.40;;;;;;;-141.28;100.00;50824.88;5106923;28;20587;-77
2022/12/11 11:17:45;;;;;;;1.70;1.60;;;;;;;-141.28;100.00;50858.25;5114639;28;20286;-75
2022/12/11 11:20:15;;;;;;;3.70;1.73;;;;;;;-141.28;100.00;50907.31;5114198;28;20206;-75
2022/12/11 11:22:46;;;;;;;1.40;1.30;;;;;;;-141.28;100.00;50877.88;5100319;28;20581;-78
2022/12/11 11:25:19;;;;;;;4.53;1.80;;;;;;;-141.28;100.00;50891.63;5099774;28;20397;-78